sensor_id;sensor_type;location;lat;lon;timestamp;P1;durP1;ratioP1;P2;durP2;ratioP2
2388;SDS011;1205;47.984;7.668;2022-10-16T00:01:21;5.13;;;2.80;;
2388;SDS011;1205;47.984;7.668;2022-10-16T00:03:48;2.63;;;2.43;;
2388;SDS011;1205;47.984;7.668;2022-10-16T00:06:15;2.30;;;2.10;;
2388;SDS011;1205;47.984;7.668;2022-10-16T00:08:42;4.67;;;2.40;;
2388;SDS011;1205;47.984;7.668;2022-10-16T00:11:09;2.20;;;2.00;;
2388;SDS011;1205;47.984;7.668;2022-10-16T00:13:43;6.10;;;2.30;;
2388;SDS011;1205;47.984;7.668;2022-10-16T00:16:12;2.27;;;2.17;;
2388;SDS011;1205;47.984;7.668;2022-10-16T00:18:38;4.93;;;2.67;;
2388;SDS011;1205;47.984;7.668;2022-10-16T00:21:05;7.97;;;2.60;;
2388;SDS011;1205;47.984;7.668;2022-10-16T00:23:39;2.80;;;2.50;;
2388;SDS011;1205;47.984;7.668;2022-10-16T00:26:06;5.80;;;2.47;;
2388;SDS011;1205;47.984;7.668;2022-10-16T00:28:33;2.80;;;2.10;;
2388;SDS011;1205;47.984;7.668;2022-10-16T00:31:02;10.97;;;2.53;;
2388;SDS011;1205;47.984;7.668;2022-10-16T00:33:32;6.60;;;2.50;;
2388;SDS011;1205;47.984;7.668;2022-10-16T00:35:59;2.07;;;1.97;;
2388;SDS011;1205;47.984;7.668;2022-10-16T00:38:24;2.53;;;2.23;;
2388;SDS011;1205;47.984;7.668;2022-10-16T00:40:50;3.73;;;2.10;;
2388;SDS011;1205;47.984;7.668;2022-10-16T00:49:01;2.10;;;2.00;;
2388;SDS011;1205;47.984;7.668;2022-10-16T00:51:41;5.83;;;2.07;;
2388;SDS011;1205;47.984;7.668;2022-10-16T00:54:10;4.13;;;2.50;;
2388;SDS011;1205;47.984;7.668;2022-10-16T00:56:39;6.30;;;2.37;;
2388;SDS011;1205;47.984;7.668;2022-10-16T00:59:06;2.50;;;2.30;;
2388;SDS011;1205;47.984;7.668;2022-10-16T01:01:38;3.20;;;2.30;;
2388;SDS011;1205;47.984;7.668;2022-10-16T01:04:04;4.17;;;2.10;;
2388;SDS011;1205;47.984;7.668;2022-10-16T01:11:53;2.27;;;2.10;;
2388;SDS011;1205;47.984;7.668;2022-10-16T01:17:04;3.17;;;2.67;;
2388;SDS011;1205;47.984;7.668;2022-10-16T01:19:50;3.90;;;2.73;;
2388;SDS011;1205;47.984;7.668;2022-10-16T01:22:26;7.10;;;2.53;;
2388;SDS011;1205;47.984;7.668;2022-10-16T01:25:05;4.30;;;2.43;;
2388;SDS011;1205;47.984;7.668;2022-10-16T01:27:36;5.53;;;2.80;;
2388;SDS011;1205;47.984;7.668;2022-10-16T01:30:07;2.80;;;2.20;;
2388;SDS011;1205;47.984;7.668;2022-10-16T01:32:42;5.10;;;3.60;;
2388;SDS011;1205;47.984;7.668;2022-10-16T01:38:08;3.13;;;2.77;;
2388;SDS011;1205;47.984;7.668;2022-10-16T01:40:39;3.00;;;2.70;;
2388;SDS011;1205;47.984;7.668;2022-10-16T01:43:14;2.67;;;2.57;;
2388;SDS011;1205;47.984;7.668;2022-10-16T01:45:44;2.80;;;2.60;;
2388;SDS011;1205;47.984;7.668;2022-10-16T01:48:12;2.63;;;2.43;;
2388;SDS011;1205;47.984;7.668;2022-10-16T01:50:41;4.13;;;2.87;;
2388;SDS011;1205;47.984;7.668;2022-10-16T01:53:09;3.40;;;2.80;;
2388;SDS011;1205;47.984;7.668;2022-10-16T01:55:39;3.40;;;3.03;;
2388;SDS011;1205;47.984;7.668;2022-10-16T01:58:10;3.37;;;2.80;;
2388;SDS011;1205;47.984;7.668;2022-10-16T02:00:38;11.00;;;3.60;;
2388;SDS011;1205;47.984;7.668;2022-10-16T02:03:07;3.47;;;2.60;;
2388;SDS011;1205;47.984;7.668;2022-10-16T02:05:40;3.40;;;3.03;;
2388;SDS011;1205;47.984;7.668;2022-10-16T02:08:20;7.67;;;3.63;;
2388;SDS011;1205;47.984;7.668;2022-10-16T02:10:48;3.60;;;2.77;;
2388;SDS011;1205;47.984;7.668;2022-10-16T02:13:19;6.03;;;3.10;;
2388;SDS011;1205;47.984;7.668;2022-10-16T02:15:50;11.00;;;2.90;;
2388;SDS011;1205;47.984;7.668;2022-10-16T02:18:16;5.77;;;3.20;;
2388;SDS011;1205;47.984;7.668;2022-10-16T02:23:23;4.33;;;3.30;;
2388;SDS011;1205;47.984;7.668;2022-10-16T02:25:54;6.93;;;3.10;;
2388;SDS011;1205;47.984;7.668;2022-10-16T02:28:28;9.70;;;3.60;;
2388;SDS011;1205;47.984;7.668;2022-10-16T02:31:02;4.60;;;3.13;;
2388;SDS011;1205;47.984;7.668;2022-10-16T02:33:31;3.33;;;2.60;;
2388;SDS011;1205;47.984;7.668;2022-10-16T02:35:58;3.70;;;2.80;;
2388;SDS011;1205;47.984;7.668;2022-10-16T02:38:24;3.00;;;2.70;;
2388;SDS011;1205;47.984;7.668;2022-10-16T02:40:50;3.07;;;2.80;;
2388;SDS011;1205;47.984;7.668;2022-10-16T02:43:17;10.13;;;3.53;;
2388;SDS011;1205;47.984;7.668;2022-10-16T02:45:43;3.27;;;2.80;;
2388;SDS011;1205;47.984;7.668;2022-10-16T02:48:09;3.93;;;2.80;;
2388;SDS011;1205;47.984;7.668;2022-10-16T02:50:34;3.50;;;3.10;;
2388;SDS011;1205;47.984;7.668;2022-10-16T02:53:00;10.60;;;4.40;;
2388;SDS011;1205;47.984;7.668;2022-10-16T02:55:25;5.93;;;2.80;;
2388;SDS011;1205;47.984;7.668;2022-10-16T02:57:52;4.80;;;3.00;;
2388;SDS011;1205;47.984;7.668;2022-10-16T03:00:19;6.13;;;3.50;;
2388;SDS011;1205;47.984;7.668;2022-10-16T03:02:45;6.97;;;2.70;;
2388;SDS011;1205;47.984;7.668;2022-10-16T03:05:11;3.87;;;3.47;;
2388;SDS011;1205;47.984;7.668;2022-10-16T03:07:37;4.73;;;2.60;;
2388;SDS011;1205;47.984;7.668;2022-10-16T03:10:02;3.20;;;2.93;;
2388;SDS011;1205;47.984;7.668;2022-10-16T03:12:28;4.60;;;3.00;;
2388;SDS011;1205;47.984;7.668;2022-10-16T03:14:55;8.13;;;3.20;;
2388;SDS011;1205;47.984;7.668;2022-10-16T03:17:21;3.83;;;2.83;;
2388;SDS011;1205;47.984;7.668;2022-10-16T03:19:47;4.00;;;2.90;;
2388;SDS011;1205;47.984;7.668;2022-10-16T03:22:13;5.07;;;3.03;;
2388;SDS011;1205;47.984;7.668;2022-10-16T03:24:38;10.87;;;2.87;;
2388;SDS011;1205;47.984;7.668;2022-10-16T03:27:04;7.50;;;2.50;;
2388;SDS011;1205;47.984;7.668;2022-10-16T03:29:29;4.00;;;2.40;;
2388;SDS011;1205;47.984;7.668;2022-10-16T03:31:55;4.30;;;2.30;;
2388;SDS011;1205;47.984;7.668;2022-10-16T03:34:21;7.23;;;2.67;;
2388;SDS011;1205;47.984;7.668;2022-10-16T03:36:47;3.60;;;2.80;;
2388;SDS011;1205;47.984;7.668;2022-10-16T03:39:12;11.60;;;3.87;;
2388;SDS011;1205;47.984;7.668;2022-10-16T03:41:38;3.77;;;2.80;;
2388;SDS011;1205;47.984;7.668;2022-10-16T03:44:03;6.47;;;2.83;;
2388;SDS011;1205;47.984;7.668;2022-10-16T03:46:29;5.93;;;2.87;;
2388;SDS011;1205;47.984;7.668;2022-10-16T03:48:55;5.50;;;2.80;;
2388;SDS011;1205;47.984;7.668;2022-10-16T03:51:20;7.20;;;2.80;;
2388;SDS011;1205;47.984;7.668;2022-10-16T03:53:46;4.00;;;2.67;;
2388;SDS011;1205;47.984;7.668;2022-10-16T03:56:11;2.77;;;2.53;;
2388;SDS011;1205;47.984;7.668;2022-10-16T03:58:37;4.83;;;2.50;;
2388;SDS011;1205;47.984;7.668;2022-10-16T04:01:03;7.00;;;2.70;;
2388;SDS011;1205;47.984;7.668;2022-10-16T04:03:28;3.17;;;2.90;;
2388;SDS011;1205;47.984;7.668;2022-10-16T04:05:54;2.73;;;2.53;;
2388;SDS011;1205;47.984;7.668;2022-10-16T04:08:20;8.80;;;2.60;;
2388;SDS011;1205;47.984;7.668;2022-10-16T04:10:45;9.63;;;2.57;;
2388;SDS011;1205;47.984;7.668;2022-10-16T04:13:11;5.40;;;3.33;;
2388;SDS011;1205;47.984;7.668;2022-10-16T04:15:37;4.63;;;2.40;;
2388;SDS011;1205;47.984;7.668;2022-10-16T04:18:04;8.03;;;2.97;;
2388;SDS011;1205;47.984;7.668;2022-10-16T04:20:30;4.00;;;3.27;;
2388;SDS011;1205;47.984;7.668;2022-10-16T04:22:56;3.20;;;2.87;;
2388;SDS011;1205;47.984;7.668;2022-10-16T04:25:21;5.57;;;3.00;;
2388;SDS011;1205;47.984;7.668;2022-10-16T04:27:47;3.30;;;3.00;;
2388;SDS011;1205;47.984;7.668;2022-10-16T04:30:12;9.17;;;3.30;;
2388;SDS011;1205;47.984;7.668;2022-10-16T04:32:38;4.37;;;2.93;;
2388;SDS011;1205;47.984;7.668;2022-10-16T04:35:04;16.17;;;3.37;;
2388;SDS011;1205;47.984;7.668;2022-10-16T04:37:30;3.80;;;3.13;;
2388;SDS011;1205;47.984;7.668;2022-10-16T04:39:55;5.43;;;2.90;;
2388;SDS011;1205;47.984;7.668;2022-10-16T04:42:21;7.57;;;3.27;;
2388;SDS011;1205;47.984;7.668;2022-10-16T04:44:46;2.80;;;2.60;;
2388;SDS011;1205;47.984;7.668;2022-10-16T04:47:13;9.83;;;3.20;;
2388;SDS011;1205;47.984;7.668;2022-10-16T04:49:38;8.87;;;3.03;;
2388;SDS011;1205;47.984;7.668;2022-10-16T04:52:04;4.40;;;2.50;;
2388;SDS011;1205;47.984;7.668;2022-10-16T04:54:30;4.87;;;3.30;;
2388;SDS011;1205;47.984;7.668;2022-10-16T04:56:56;3.03;;;2.93;;
2388;SDS011;1205;47.984;7.668;2022-10-16T04:59:23;3.07;;;2.87;;
2388;SDS011;1205;47.984;7.668;2022-10-16T05:01:48;2.80;;;2.60;;
2388;SDS011;1205;47.984;7.668;2022-10-16T05:04:14;7.80;;;2.70;;
2388;SDS011;1205;47.984;7.668;2022-10-16T05:06:40;5.90;;;2.70;;
2388;SDS011;1205;47.984;7.668;2022-10-16T05:09:06;3.53;;;2.90;;
2388;SDS011;1205;47.984;7.668;2022-10-16T05:11:33;6.67;;;2.83;;
2388;SDS011;1205;47.984;7.668;2022-10-16T05:13:58;8.73;;;2.90;;
2388;SDS011;1205;47.984;7.668;2022-10-16T05:16:24;8.77;;;2.77;;
2388;SDS011;1205;47.984;7.668;2022-10-16T05:18:53;5.33;;;2.83;;
2388;SDS011;1205;47.984;7.668;2022-10-16T05:21:19;4.27;;;3.20;;
2388;SDS011;1205;47.984;7.668;2022-10-16T05:23:45;4.27;;;2.70;;
2388;SDS011;1205;47.984;7.668;2022-10-16T05:26:11;4.83;;;2.67;;
2388;SDS011;1205;47.984;7.668;2022-10-16T05:28:36;3.10;;;2.50;;
2388;SDS011;1205;47.984;7.668;2022-10-16T05:31:05;2.93;;;2.60;;
2388;SDS011;1205;47.984;7.668;2022-10-16T05:33:32;8.40;;;2.90;;
2388;SDS011;1205;47.984;7.668;2022-10-16T05:36:00;3.30;;;2.27;;
2388;SDS011;1205;47.984;7.668;2022-10-16T05:38:31;4.47;;;2.50;;
2388;SDS011;1205;47.984;7.668;2022-10-16T05:40:56;4.03;;;2.63;;
2388;SDS011;1205;47.984;7.668;2022-10-16T05:43:23;10.63;;;3.00;;
2388;SDS011;1205;47.984;7.668;2022-10-16T05:45:58;8.47;;;2.80;;
2388;SDS011;1205;47.984;7.668;2022-10-16T05:48:32;3.63;;;2.63;;
2388;SDS011;1205;47.984;7.668;2022-10-16T05:50:59;8.37;;;3.10;;
2388;SDS011;1205;47.984;7.668;2022-10-16T05:53:27;9.97;;;3.73;;
2388;SDS011;1205;47.984;7.668;2022-10-16T05:55:54;17.03;;;3.30;;
2388;SDS011;1205;47.984;7.668;2022-10-16T05:58:21;7.53;;;2.77;;
2388;SDS011;1205;47.984;7.668;2022-10-16T06:00:58;14.10;;;3.13;;
2388;SDS011;1205;47.984;7.668;2022-10-16T06:03:25;19.33;;;3.00;;
2388;SDS011;1205;47.984;7.668;2022-10-16T06:05:50;6.00;;;2.90;;
2388;SDS011;1205;47.984;7.668;2022-10-16T06:08:17;12.43;;;3.10;;
2388;SDS011;1205;47.984;7.668;2022-10-16T06:10:44;4.50;;;2.63;;
2388;SDS011;1205;47.984;7.668;2022-10-16T06:13:10;3.07;;;2.43;;
2388;SDS011;1205;47.984;7.668;2022-10-16T06:15:37;14.10;;;3.47;;
2388;SDS011;1205;47.984;7.668;2022-10-16T06:18:04;4.00;;;2.53;;
2388;SDS011;1205;47.984;7.668;2022-10-16T06:20:30;3.87;;;2.30;;
2388;SDS011;1205;47.984;7.668;2022-10-16T06:22:56;3.80;;;2.80;;
2388;SDS011;1205;47.984;7.668;2022-10-16T06:25:22;3.87;;;2.80;;
2388;SDS011;1205;47.984;7.668;2022-10-16T06:27:47;8.90;;;3.70;;
2388;SDS011;1205;47.984;7.668;2022-10-16T06:30:13;6.03;;;2.80;;
2388;SDS011;1205;47.984;7.668;2022-10-16T06:32:39;5.33;;;2.60;;
2388;SDS011;1205;47.984;7.668;2022-10-16T06:35:04;7.20;;;2.53;;
2388;SDS011;1205;47.984;7.668;2022-10-16T06:37:30;12.27;;;2.90;;
2388;SDS011;1205;47.984;7.668;2022-10-16T06:39:55;3.93;;;3.00;;
2388;SDS011;1205;47.984;7.668;2022-10-16T06:42:21;10.23;;;3.67;;
2388;SDS011;1205;47.984;7.668;2022-10-16T06:44:46;4.10;;;2.70;;
2388;SDS011;1205;47.984;7.668;2022-10-16T06:47:12;8.80;;;6.60;;
2388;SDS011;1205;47.984;7.668;2022-10-16T06:49:37;7.10;;;6.33;;
2388;SDS011;1205;47.984;7.668;2022-10-16T06:52:03;11.30;;;5.20;;
2388;SDS011;1205;47.984;7.668;2022-10-16T06:54:29;14.20;;;4.80;;
2388;SDS011;1205;47.984;7.668;2022-10-16T06:56:55;4.77;;;3.77;;
2388;SDS011;1205;47.984;7.668;2022-10-16T06:59:21;5.07;;;4.17;;
2388;SDS011;1205;47.984;7.668;2022-10-16T07:01:47;4.40;;;3.73;;
2388;SDS011;1205;47.984;7.668;2022-10-16T07:04:12;4.13;;;3.73;;
2388;SDS011;1205;47.984;7.668;2022-10-16T07:06:38;6.87;;;3.70;;
2388;SDS011;1205;47.984;7.668;2022-10-16T07:09:05;5.43;;;4.23;;
2388;SDS011;1205;47.984;7.668;2022-10-16T07:11:32;10.00;;;3.80;;
2388;SDS011;1205;47.984;7.668;2022-10-16T07:13:58;8.50;;;3.90;;
2388;SDS011;1205;47.984;7.668;2022-10-16T07:16:26;8.00;;;3.50;;
2388;SDS011;1205;47.984;7.668;2022-10-16T07:18:54;9.17;;;3.20;;
2388;SDS011;1205;47.984;7.668;2022-10-16T07:21:23;5.80;;;3.00;;
2388;SDS011;1205;47.984;7.668;2022-10-16T07:23:52;9.00;;;3.47;;
2388;SDS011;1205;47.984;7.668;2022-10-16T07:26:19;6.90;;;2.97;;
2388;SDS011;1205;47.984;7.668;2022-10-16T07:28:45;4.73;;;3.00;;
2388;SDS011;1205;47.984;7.668;2022-10-16T07:31:12;6.20;;;3.47;;
2388;SDS011;1205;47.984;7.668;2022-10-16T07:33:39;8.07;;;3.43;;
2388;SDS011;1205;47.984;7.668;2022-10-16T07:36:08;3.23;;;3.00;;
2388;SDS011;1205;47.984;7.668;2022-10-16T07:38:33;3.17;;;2.97;;
2388;SDS011;1205;47.984;7.668;2022-10-16T07:41:00;2.60;;;2.40;;
2388;SDS011;1205;47.984;7.668;2022-10-16T07:43:27;6.87;;;2.90;;
2388;SDS011;1205;47.984;7.668;2022-10-16T07:45:53;3.40;;;3.10;;
2388;SDS011;1205;47.984;7.668;2022-10-16T07:48:20;5.13;;;2.67;;
2388;SDS011;1205;47.984;7.668;2022-10-16T07:50:46;4.33;;;2.57;;
2388;SDS011;1205;47.984;7.668;2022-10-16T07:53:12;3.57;;;2.70;;
2388;SDS011;1205;47.984;7.668;2022-10-16T07:55:39;4.20;;;2.80;;
2388;SDS011;1205;47.984;7.668;2022-10-16T07:58:05;4.10;;;2.40;;
2388;SDS011;1205;47.984;7.668;2022-10-16T08:00:31;9.67;;;3.00;;
2388;SDS011;1205;47.984;7.668;2022-10-16T08:02:57;3.10;;;2.40;;
2388;SDS011;1205;47.984;7.668;2022-10-16T08:05:27;5.50;;;2.90;;
2388;SDS011;1205;47.984;7.668;2022-10-16T08:07:53;4.90;;;2.97;;
2388;SDS011;1205;47.984;7.668;2022-10-16T08:10:19;2.80;;;2.60;;
2388;SDS011;1205;47.984;7.668;2022-10-16T08:12:47;11.80;;;3.40;;
2388;SDS011;1205;47.984;7.668;2022-10-16T08:15:13;3.13;;;2.87;;
2388;SDS011;1205;47.984;7.668;2022-10-16T08:17:38;4.37;;;2.63;;
2388;SDS011;1205;47.984;7.668;2022-10-16T08:20:04;4.40;;;2.57;;
2388;SDS011;1205;47.984;7.668;2022-10-16T08:22:30;2.80;;;2.60;;
2388;SDS011;1205;47.984;7.668;2022-10-16T08:24:56;4.40;;;2.80;;
2388;SDS011;1205;47.984;7.668;2022-10-16T08:27:21;5.13;;;3.33;;
2388;SDS011;1205;47.984;7.668;2022-10-16T08:29:48;2.80;;;2.60;;
2388;SDS011;1205;47.984;7.668;2022-10-16T08:32:13;2.93;;;2.37;;
2388;SDS011;1205;47.984;7.668;2022-10-16T08:34:39;3.30;;;2.20;;
2388;SDS011;1205;47.984;7.668;2022-10-16T08:37:04;2.83;;;2.20;;
2388;SDS011;1205;47.984;7.668;2022-10-16T08:39:32;6.20;;;2.60;;
2388;SDS011;1205;47.984;7.668;2022-10-16T08:42:04;4.60;;;2.30;;
2388;SDS011;1205;47.984;7.668;2022-10-16T08:47:21;2.10;;;2.00;;
2388;SDS011;1205;47.984;7.668;2022-10-16T08:49:58;3.20;;;2.07;;
2388;SDS011;1205;47.984;7.668;2022-10-16T08:52:28;1.60;;;1.60;;
2388;SDS011;1205;47.984;7.668;2022-10-16T08:54:57;1.93;;;1.83;;
2388;SDS011;1205;47.984;7.668;2022-10-16T08:57:24;4.23;;;1.97;;
2388;SDS011;1205;47.984;7.668;2022-10-16T08:59:52;5.67;;;1.97;;
2388;SDS011;1205;47.984;7.668;2022-10-16T09:02:32;3.63;;;2.17;;
2388;SDS011;1205;47.984;7.668;2022-10-16T09:08:19;3.70;;;2.00;;
2388;SDS011;1205;47.984;7.668;2022-10-16T09:13:50;2.30;;;2.10;;
2388;SDS011;1205;47.984;7.668;2022-10-16T09:16:27;2.27;;;2.10;;
2388;SDS011;1205;47.984;7.668;2022-10-16T09:21:49;5.10;;;2.17;;
2388;SDS011;1205;47.984;7.668;2022-10-16T09:24:23;2.40;;;2.20;;
2388;SDS011;1205;47.984;7.668;2022-10-16T09:26:50;4.23;;;2.87;;
2388;SDS011;1205;47.984;7.668;2022-10-16T09:29:17;6.07;;;1.80;;
2388;SDS011;1205;47.984;7.668;2022-10-16T09:31:45;7.00;;;1.70;;
2388;SDS011;1205;47.984;7.668;2022-10-16T09:34:33;6.93;;;2.40;;
2388;SDS011;1205;47.984;7.668;2022-10-16T09:36:59;3.90;;;1.60;;
2388;SDS011;1205;47.984;7.668;2022-10-16T09:39:29;2.10;;;1.73;;
2388;SDS011;1205;47.984;7.668;2022-10-16T09:41:54;1.70;;;1.60;;
2388;SDS011;1205;47.984;7.668;2022-10-16T09:50:02;2.07;;;1.97;;
2388;SDS011;1205;47.984;7.668;2022-10-16T09:52:31;2.40;;;2.20;;
2388;SDS011;1205;47.984;7.668;2022-10-16T09:55:02;20.43;;;6.60;;
2388;SDS011;1205;47.984;7.668;2022-10-16T09:57:48;6.40;;;5.30;;
2388;SDS011;1205;47.984;7.668;2022-10-16T10:00:18;4.77;;;2.30;;
2388;SDS011;1205;47.984;7.668;2022-10-16T10:02:44;5.40;;;1.47;;
2388;SDS011;1205;47.984;7.668;2022-10-16T10:05:18;1.20;;;1.10;;
2388;SDS011;1205;47.984;7.668;2022-10-16T10:07:56;1.30;;;1.20;;
2388;SDS011;1205;47.984;7.668;2022-10-16T10:10:28;7.73;;;2.87;;
2388;SDS011;1205;47.984;7.668;2022-10-16T10:12:56;1.83;;;1.73;;
2388;SDS011;1205;47.984;7.668;2022-10-16T10:15:23;1.33;;;1.20;;
2388;SDS011;1205;47.984;7.668;2022-10-16T10:17:52;1.23;;;1.13;;
2388;SDS011;1205;47.984;7.668;2022-10-16T10:20:24;1.40;;;1.30;;
2388;SDS011;1205;47.984;7.668;2022-10-16T10:22:51;4.43;;;1.30;;
2388;SDS011;1205;47.984;7.668;2022-10-16T10:33:20;2.97;;;1.10;;
2388;SDS011;1205;47.984;7.668;2022-10-16T10:55:24;2.23;;;1.03;;
2388;SDS011;1205;47.984;7.668;2022-10-16T11:00:40;3.07;;;1.37;;
2388;SDS011;1205;47.984;7.668;2022-10-16T11:03:13;2.33;;;1.20;;
2388;SDS011;1205;47.984;7.668;2022-10-16T11:05:58;1.63;;;1.57;;
2388;SDS011;1205;47.984;7.668;2022-10-16T11:08:51;4.50;;;1.30;;
2388;SDS011;1205;47.984;7.668;2022-10-16T11:11:25;4.77;;;1.40;;
2388;SDS011;1205;47.984;7.668;2022-10-16T11:13:59;5.83;;;1.53;;
2388;SDS011;1205;47.984;7.668;2022-10-16T11:16:30;2.27;;;1.43;;
2388;SDS011;1205;47.984;7.668;2022-10-16T11:19:03;6.00;;;1.73;;
2388;SDS011;1205;47.984;7.668;2022-10-16T11:21:31;1.67;;;1.57;;
2388;SDS011;1205;47.984;7.668;2022-10-16T11:24:05;5.47;;;1.93;;
2388;SDS011;1205;47.984;7.668;2022-10-16T11:26:58;1.83;;;1.53;;
2388;SDS011;1205;47.984;7.668;2022-10-16T11:29:29;1.30;;;1.30;;
2388;SDS011;1205;47.984;7.668;2022-10-16T11:31:57;2.20;;;1.10;;
2388;SDS011;1205;47.984;7.668;2022-10-16T11:34:34;7.27;;;1.47;;
2388;SDS011;1205;47.984;7.668;2022-10-16T11:37:27;1.63;;;1.33;;
2388;SDS011;1205;47.984;7.668;2022-10-16T11:40:05;1.20;;;1.20;;
2388;SDS011;1205;47.984;7.668;2022-10-16T11:42:49;3.57;;;1.20;;
2388;SDS011;1205;47.984;7.668;2022-10-16T11:45:45;2.60;;;1.40;;
2388;SDS011;1205;47.984;7.668;2022-10-16T11:53:46;1.40;;;1.33;;
2388;SDS011;1205;47.984;7.668;2022-10-16T11:56:20;1.67;;;1.20;;
2388;SDS011;1205;47.984;7.668;2022-10-16T11:58:50;2.50;;;1.43;;
2388;SDS011;1205;47.984;7.668;2022-10-16T12:01:38;2.43;;;1.33;;
2388;SDS011;1205;47.984;7.668;2022-10-16T12:04:20;6.80;;;1.40;;
2388;SDS011;1205;47.984;7.668;2022-10-16T12:06:58;2.90;;;1.70;;
2388;SDS011;1205;47.984;7.668;2022-10-16T12:09:26;1.23;;;1.23;;
2388;SDS011;1205;47.984;7.668;2022-10-16T12:11:52;1.70;;;1.30;;
2388;SDS011;1205;47.984;7.668;2022-10-16T12:14:19;3.60;;;1.73;;
2388;SDS011;1205;47.984;7.668;2022-10-16T12:16:56;6.40;;;1.67;;
2388;SDS011;1205;47.984;7.668;2022-10-16T12:19:25;3.63;;;0.97;;
2388;SDS011;1205;47.984;7.668;2022-10-16T12:22:01;2.93;;;1.30;;
2388;SDS011;1205;47.984;7.668;2022-10-16T12:27:02;2.70;;;1.87;;
2388;SDS011;1205;47.984;7.668;2022-10-16T12:29:40;3.53;;;2.40;;
2388;SDS011;1205;47.984;7.668;2022-10-16T12:34:59;4.97;;;1.23;;
2388;SDS011;1205;47.984;7.668;2022-10-16T12:37:34;1.93;;;1.50;;
2388;SDS011;1205;47.984;7.668;2022-10-16T12:40:15;2.93;;;1.37;;
2388;SDS011;1205;47.984;7.668;2022-10-16T12:42:45;2.30;;;1.40;;
2388;SDS011;1205;47.984;7.668;2022-10-16T12:45:29;1.57;;;1.20;;
2388;SDS011;1205;47.984;7.668;2022-10-16T12:47:57;1.40;;;1.30;;
2388;SDS011;1205;47.984;7.668;2022-10-16T12:50:29;1.50;;;1.40;;
2388;SDS011;1205;47.984;7.668;2022-10-16T12:53:04;3.03;;;1.40;;
2388;SDS011;1205;47.984;7.668;2022-10-16T12:55:55;1.53;;;1.20;;
2388;SDS011;1205;47.984;7.668;2022-10-16T13:01:41;1.10;;;1.00;;
2388;SDS011;1205;47.984;7.668;2022-10-16T13:18:35;1.47;;;1.37;;
2388;SDS011;1205;47.984;7.668;2022-10-16T13:23:44;1.90;;;1.27;;
2388;SDS011;1205;47.984;7.668;2022-10-16T13:26:22;1.63;;;1.20;;
2388;SDS011;1205;47.984;7.668;2022-10-16T13:28:50;1.47;;;1.37;;
2388;SDS011;1205;47.984;7.668;2022-10-16T13:31:22;2.30;;;1.20;;
2388;SDS011;1205;47.984;7.668;2022-10-16T13:33:50;3.20;;;1.83;;
2388;SDS011;1205;47.984;7.668;2022-10-16T13:38:59;2.30;;;1.40;;
2388;SDS011;1205;47.984;7.668;2022-10-16T13:41:31;2.67;;;1.00;;
2388;SDS011;1205;47.984;7.668;2022-10-16T13:43:56;1.47;;;1.30;;
2388;SDS011;1205;47.984;7.668;2022-10-16T13:46:23;2.00;;;1.10;;
2388;SDS011;1205;47.984;7.668;2022-10-16T13:48:59;1.60;;;1.33;;
2388;SDS011;1205;47.984;7.668;2022-10-16T13:51:26;1.67;;;1.40;;
2388;SDS011;1205;47.984;7.668;2022-10-16T13:53:54;2.83;;;1.47;;
2388;SDS011;1205;47.984;7.668;2022-10-16T13:56:21;1.17;;;1.00;;
2388;SDS011;1205;47.984;7.668;2022-10-16T14:01:31;1.10;;;1.10;;
2388;SDS011;1205;47.984;7.668;2022-10-16T14:04:02;3.07;;;0.97;;
2388;SDS011;1205;47.984;7.668;2022-10-16T14:06:30;2.00;;;1.00;;
2388;SDS011;1205;47.984;7.668;2022-10-16T14:09:06;2.03;;;1.57;;
2388;SDS011;1205;47.984;7.668;2022-10-16T14:14:02;2.80;;;1.20;;
2388;SDS011;1205;47.984;7.668;2022-10-16T14:16:29;2.10;;;0.93;;
2388;SDS011;1205;47.984;7.668;2022-10-16T14:19:00;1.30;;;1.20;;
2388;SDS011;1205;47.984;7.668;2022-10-16T14:21:29;1.20;;;1.20;;
2388;SDS011;1205;47.984;7.668;2022-10-16T14:23:55;1.70;;;1.17;;
2388;SDS011;1205;47.984;7.668;2022-10-16T14:26:26;1.73;;;1.13;;
2388;SDS011;1205;47.984;7.668;2022-10-16T14:31:38;0.97;;;0.97;;
2388;SDS011;1205;47.984;7.668;2022-10-16T14:34:04;1.10;;;1.10;;
2388;SDS011;1205;47.984;7.668;2022-10-16T14:36:47;5.17;;;1.53;;
2388;SDS011;1205;47.984;7.668;2022-10-16T14:39:16;1.20;;;1.10;;
2388;SDS011;1205;47.984;7.668;2022-10-16T14:41:45;1.20;;;1.20;;
2388;SDS011;1205;47.984;7.668;2022-10-16T14:44:12;1.13;;;1.03;;
2388;SDS011;1205;47.984;7.668;2022-10-16T14:46:39;1.23;;;1.10;;
2388;SDS011;1205;47.984;7.668;2022-10-16T14:51:36;1.23;;;1.23;;
2388;SDS011;1205;47.984;7.668;2022-10-16T14:54:02;7.27;;;1.23;;
2388;SDS011;1205;47.984;7.668;2022-10-16T14:56:29;2.20;;;1.20;;
2388;SDS011;1205;47.984;7.668;2022-10-16T14:59:17;2.83;;;1.20;;
2388;SDS011;1205;47.984;7.668;2022-10-16T15:02:00;1.00;;;1.00;;
2388;SDS011;1205;47.984;7.668;2022-10-16T15:04:45;3.17;;;1.30;;
2388;SDS011;1205;47.984;7.668;2022-10-16T15:07:11;5.57;;;0.93;;
2388;SDS011;1205;47.984;7.668;2022-10-16T15:09:36;1.10;;;1.10;;
2388;SDS011;1205;47.984;7.668;2022-10-16T15:12:02;2.27;;;0.90;;
2388;SDS011;1205;47.984;7.668;2022-10-16T15:14:27;1.07;;;1.03;;
2388;SDS011;1205;47.984;7.668;2022-10-16T15:16:53;1.27;;;1.17;;
2388;SDS011;1205;47.984;7.668;2022-10-16T15:19:18;1.47;;;1.00;;
2388;SDS011;1205;47.984;7.668;2022-10-16T15:21:44;1.47;;;1.30;;
2388;SDS011;1205;47.984;7.668;2022-10-16T15:24:13;1.00;;;1.00;;
2388;SDS011;1205;47.984;7.668;2022-10-16T15:26:39;3.77;;;1.30;;
2388;SDS011;1205;47.984;7.668;2022-10-16T15:29:05;2.93;;;1.50;;
2388;SDS011;1205;47.984;7.668;2022-10-16T15:31:30;4.37;;;3.97;;
2388;SDS011;1205;47.984;7.668;2022-10-16T15:33:57;1.90;;;1.80;;
2388;SDS011;1205;47.984;7.668;2022-10-16T15:36:29;2.97;;;1.30;;
2388;SDS011;1205;47.984;7.668;2022-10-16T15:38:59;2.73;;;1.47;;
2388;SDS011;1205;47.984;7.668;2022-10-16T15:41:24;3.03;;;1.40;;
2388;SDS011;1205;47.984;7.668;2022-10-16T15:43:50;2.70;;;1.60;;
2388;SDS011;1205;47.984;7.668;2022-10-16T15:46:17;1.30;;;1.30;;
2388;SDS011;1205;47.984;7.668;2022-10-16T15:48:45;2.97;;;2.70;;
2388;SDS011;1205;47.984;7.668;2022-10-16T15:51:11;2.30;;;2.10;;
2388;SDS011;1205;47.984;7.668;2022-10-16T15:53:37;4.00;;;2.00;;
2388;SDS011;1205;47.984;7.668;2022-10-16T15:56:03;2.67;;;2.47;;
2388;SDS011;1205;47.984;7.668;2022-10-16T15:58:29;2.13;;;2.03;;
2388;SDS011;1205;47.984;7.668;2022-10-16T16:00:58;2.63;;;2.43;;
2388;SDS011;1205;47.984;7.668;2022-10-16T16:03:29;1.83;;;1.73;;
2388;SDS011;1205;47.984;7.668;2022-10-16T16:05:55;3.57;;;1.63;;
2388;SDS011;1205;47.984;7.668;2022-10-16T16:08:21;3.03;;;2.47;;
2388;SDS011;1205;47.984;7.668;2022-10-16T16:10:57;2.30;;;2.10;;
2388;SDS011;1205;47.984;7.668;2022-10-16T16:13:26;1.90;;;1.80;;
2388;SDS011;1205;47.984;7.668;2022-10-16T16:15:52;5.53;;;2.40;;
2388;SDS011;1205;47.984;7.668;2022-10-16T16:18:18;6.23;;;2.37;;
2388;SDS011;1205;47.984;7.668;2022-10-16T16:20:44;4.40;;;2.13;;
2388;SDS011;1205;47.984;7.668;2022-10-16T16:23:09;2.13;;;1.90;;
2388;SDS011;1205;47.984;7.668;2022-10-16T16:25:35;6.87;;;2.27;;
2388;SDS011;1205;47.984;7.668;2022-10-16T16:28:01;3.07;;;1.50;;
2388;SDS011;1205;47.984;7.668;2022-10-16T16:30:26;2.50;;;1.30;;
2388;SDS011;1205;47.984;7.668;2022-10-16T16:32:52;2.20;;;1.30;;
2388;SDS011;1205;47.984;7.668;2022-10-16T16:35:17;3.20;;;2.60;;
2388;SDS011;1205;47.984;7.668;2022-10-16T16:37:43;2.00;;;1.90;;
2388;SDS011;1205;47.984;7.668;2022-10-16T16:40:09;2.50;;;1.20;;
2388;SDS011;1205;47.984;7.668;2022-10-16T16:42:34;8.10;;;1.80;;
2388;SDS011;1205;47.984;7.668;2022-10-16T16:45:00;4.13;;;1.00;;
2388;SDS011;1205;47.984;7.668;2022-10-16T16:47:25;7.20;;;1.30;;
2388;SDS011;1205;47.984;7.668;2022-10-16T16:49:51;1.67;;;1.57;;
2388;SDS011;1205;47.984;7.668;2022-10-16T16:52:17;2.63;;;1.50;;
2388;SDS011;1205;47.984;7.668;2022-10-16T16:54:42;5.40;;;1.23;;
2388;SDS011;1205;47.984;7.668;2022-10-16T16:57:09;1.00;;;1.00;;
2388;SDS011;1205;47.984;7.668;2022-10-16T16:59:35;1.40;;;1.30;;
2388;SDS011;1205;47.984;7.668;2022-10-16T17:02:01;1.83;;;1.73;;
2388;SDS011;1205;47.984;7.668;2022-10-16T17:04:27;1.60;;;1.50;;
2388;SDS011;1205;47.984;7.668;2022-10-16T17:06:53;3.33;;;2.00;;
2388;SDS011;1205;47.984;7.668;2022-10-16T17:09:20;7.50;;;1.37;;
2388;SDS011;1205;47.984;7.668;2022-10-16T17:11:45;3.80;;;1.57;;
2388;SDS011;1205;47.984;7.668;2022-10-16T17:14:13;1.63;;;1.53;;
2388;SDS011;1205;47.984;7.668;2022-10-16T17:16:39;3.53;;;1.20;;